createdAt,value
2018-09-01T07:42:25.098Z,102100.05
2018-09-01T07:47:28.561Z,102111.95
2018-09-01T07:52:31.706Z,102109.55
2018-09-01T07:57:34.857Z,102117.38
2018-09-01T08:02:38.094Z,102120.16
2018-09-01T08:07:41.269Z,102127.66
2018-09-01T08:12:44.372Z,102129.10
2018-09-01T08:17:47.562Z,102127.88
2018-09-01T08:22:50.716Z,102120.08
2018-09-01T08:27:53.884Z,102125.98
2018-09-01T08:32:57.026Z,102136.94
2018-09-01T08:38:00.172Z,102144.38
2018-09-01T08:43:04.327Z,102143.44
2018-09-01T08:48:07.489Z,102158.77
2018-09-01T08:53:10.647Z,102155.56
2018-09-01T08:58:13.835Z,102152.29
2018-09-01T09:03:17.214Z,102149.50
2018-09-01T09:08:20.437Z,102143.80
2018-09-01T09:13:23.578Z,102157.56
2018-09-01T09:18:26.784Z,102151.77
2018-09-01T09:23:29.941Z,102139.45
2018-09-01T09:28:33.100Z,102144.66
2018-09-01T09:33:36.309Z,102137.97
2018-09-01T09:38:39.504Z,102141.94
2018-09-01T09:43:42.670Z,102143.59
2018-09-01T09:48:46.187Z,102143.27
2018-09-01T09:53:49.411Z,102132.58
2018-09-01T09:58:52.604Z,102133.55
2018-09-01T10:03:55.938Z,102129.06
2018-09-01T10:08:59.202Z,102124.38
2018-09-01T10:14:02.475Z,102134.49
2018-09-01T10:19:05.674Z,102130.43
2018-09-01T10:24:08.869Z,102125.63
2018-09-01T10:29:12.055Z,102125.06
2018-09-01T10:34:15.227Z,102127.55
2018-09-01T10:39:18.442Z,102122.00
2018-09-01T10:44:21.647Z,102123.18
2018-09-01T10:49:24.802Z,102139.33
2018-09-01T10:54:28.884Z,102130.91
2018-09-01T10:59:32.134Z,102126.23
2018-09-01T11:04:35.273Z,102125.86
2018-09-01T11:09:38.379Z,102118.48
2018-09-01T11:14:41.627Z,102119.38
2018-09-01T11:19:44.754Z,102115.13
2018-09-01T11:24:47.983Z,102116.00
2018-09-01T11:29:51.156Z,102111.72
2018-09-01T11:34:55.368Z,102104.43
2018-09-01T11:39:58.712Z,102114.34
2018-09-01T11:45:01.896Z,102118.97
2018-09-01T11:50:05.414Z,102112.42
2018-09-01T11:55:08.571Z,102108.27
2018-09-01T12:00:11.828Z,102106.19
2018-09-01T12:05:15.025Z,102103.77
2018-09-01T12:10:18.252Z,102088.17
2018-09-01T12:15:21.353Z,102083.42
2018-09-01T12:20:24.765Z,102077.19
2018-09-01T12:25:27.977Z,102072.55
2018-09-01T12:30:31.199Z,102075.16
2018-09-01T12:35:34.354Z,102079.27
2018-09-01T12:40:38.891Z,102068.50
2018-09-01T12:45:42.060Z,102076.61
2018-09-01T12:50:45.278Z,102067.34
2018-09-01T12:55:48.436Z,102077.41
2018-09-01T13:00:51.712Z,102078.55
2018-09-01T13:05:54.753Z,102078.62
2018-09-01T13:10:57.851Z,102073.70
2018-09-01T13:16:01.060Z,102070.27
2018-09-01T13:21:04.350Z,102073.00
2018-09-01T13:26:07.601Z,102071.36
2018-09-01T13:31:10.710Z,102072.64
2018-09-01T13:36:13.929Z,102069.52
2018-09-01T13:41:17.055Z,102066.05
2018-09-01T16:41:07.790Z,102076.44
2018-09-01T16:46:10.892Z,102069.75
2018-09-01T16:51:14.205Z,102075.02
2018-09-01T16:56:17.370Z,102084.41
2018-09-01T17:01:20.561Z,102086.76
2018-09-01T17:06:23.800Z,102086.93
2018-09-01T17:11:26.986Z,102089.52
2018-09-01T17:16:30.188Z,102099.51
2018-09-01T17:21:33.330Z,102108.45
2018-09-01T17:26:36.495Z,102105.32
2018-09-01T17:31:39.729Z,102109.59
2018-09-01T17:36:42.930Z,102110.88
2018-09-01T17:41:46.138Z,102113.97
2018-09-01T17:46:49.289Z,102129.81
2018-09-01T17:51:52.531Z,102128.63
2018-09-01T17:56:55.770Z,102131.43
2018-09-01T18:02:04.562Z,102136.72
2018-09-01T18:07:07.916Z,102137.27
2018-09-01T18:12:11.125Z,102133.77
2018-09-01T18:17:14.603Z,102138.50
2018-09-01T18:22:17.918Z,102133.69
2018-09-01T18:27:22.315Z,102148.77
2018-09-01T18:32:31.204Z,102154.32
2018-09-01T18:37:35.676Z,102153.53
2018-09-01T18:42:38.940Z,102156.95
2018-09-01T18:47:42.167Z,102161.70
2018-09-01T18:52:45.492Z,102169.39
2018-09-01T18:57:54.255Z,102166.94
2018-09-01T19:02:57.433Z,102164.77
2018-09-01T19:08:00.612Z,102176.14
2018-09-01T19:13:09.670Z,102175.39
2018-09-01T19:18:12.938Z,102185.69
2018-09-01T19:23:16.201Z,102191.81
2018-09-01T19:28:19.473Z,102199.80
2018-09-01T19:33:22.670Z,102207.86
2018-09-01T19:38:25.882Z,102212.58
2018-09-01T19:43:29.115Z,102205.33
2018-09-01T19:48:32.283Z,102207.62
2018-09-01T19:53:35.443Z,102212.62
2018-09-01T19:58:38.621Z,102211.09
2018-09-01T20:03:41.817Z,102216.27
2018-09-01T20:08:44.980Z,102214.55
2018-09-01T20:13:48.093Z,102202.59
2018-09-01T20:18:51.275Z,102218.70
2018-09-01T20:23:54.419Z,102219.63
2018-09-01T20:28:57.531Z,102229.50
2018-09-01T20:34:00.731Z,102225.61
2018-09-01T20:39:05.027Z,102219.67
2018-09-01T20:44:08.430Z,102223.59
2018-09-01T20:49:11.664Z,102229.18
2018-09-01T20:54:14.933Z,102232.74
2018-09-01T20:59:18.159Z,102240.67
2018-09-01T21:04:21.521Z,102246.77
2018-09-01T21:09:24.908Z,102245.94
2018-09-01T21:14:29.011Z,102259.29
2018-09-01T21:19:32.297Z,102253.52
2018-09-01T21:24:35.504Z,102261.60
2018-09-01T21:29:38.909Z,102264.07
2018-09-01T21:34:42.105Z,102262.35
2018-09-01T21:39:45.363Z,102260.00
2018-09-01T21:44:48.490Z,102268.97
2018-09-01T21:49:52.032Z,102269.70
2018-09-01T21:54:55.415Z,102276.45
2018-09-01T21:59:58.821Z,102267.27
2018-09-01T22:05:02.055Z,102261.02
2018-09-01T22:10:05.321Z,102247.67
2018-09-01T22:15:08.516Z,102246.31
2018-09-01T22:20:11.727Z,102246.75
2018-09-01T22:25:14.931Z,102253.22
2018-09-01T22:30:18.276Z,102257.23
2018-09-01T22:35:21.694Z,102255.03
2018-09-01T22:40:25.181Z,102252.44
2018-09-01T22:45:28.696Z,102247.93
2018-09-01T22:50:32.314Z,102251.31
2018-09-01T22:55:35.545Z,102251.22
2018-09-01T23:00:38.756Z,102251.08
2018-09-01T23:05:41.973Z,102255.45
2018-09-01T23:10:45.468Z,102249.59
2018-09-01T23:15:48.668Z,102248.77
2018-09-01T23:20:51.801Z,102251.11
2018-09-01T23:25:55.167Z,102256.40
2018-09-01T23:31:00.639Z,102259.67
2018-09-01T23:36:04.003Z,102269.03
2018-09-01T23:41:07.214Z,102260.78
2018-09-01T23:46:10.390Z,102263.16
2018-09-01T23:51:13.661Z,102257.42
2018-09-01T23:56:16.914Z,102261.98
